sensor_id;sensor_type;location;lat;lon;timestamp;P1;durP1;ratioP1;P2;durP2;ratioP2
44850;SDS011;30583;48.714;9.386;2023-06-10T00:00:19;7.45;;;5.40;;
44850;SDS011;30583;48.714;9.386;2023-06-10T00:02:45;6.45;;;5.22;;
44850;SDS011;30583;48.714;9.386;2023-06-10T00:05:11;6.15;;;5.43;;
44850;SDS011;30583;48.714;9.386;2023-06-10T00:07:36;6.38;;;5.10;;
44850;SDS011;30583;48.714;9.386;2023-06-10T00:10:03;7.95;;;5.35;;
44850;SDS011;30583;48.714;9.386;2023-06-10T00:12:31;7.97;;;5.40;;
44850;SDS011;30583;48.714;9.386;2023-06-10T00:15:02;7.38;;;5.25;;
44850;SDS011;30583;48.714;9.386;2023-06-10T00:17:30;6.68;;;5.13;;
44850;SDS011;30583;48.714;9.386;2023-06-10T00:19:57;7.07;;;5.35;;
44850;SDS011;30583;48.714;9.386;2023-06-10T00:22:23;10.55;;;6.18;;
44850;SDS011;30583;48.714;9.386;2023-06-10T00:24:49;7.55;;;5.38;;
44850;SDS011;30583;48.714;9.386;2023-06-10T00:27:15;9.52;;;5.20;;
44850;SDS011;30583;48.714;9.386;2023-06-10T00:29:41;6.93;;;5.57;;
44850;SDS011;30583;48.714;9.386;2023-06-10T00:32:07;9.60;;;5.78;;
44850;SDS011;30583;48.714;9.386;2023-06-10T00:34:32;7.50;;;5.63;;
44850;SDS011;30583;48.714;9.386;2023-06-10T00:36:58;7.45;;;5.15;;
44850;SDS011;30583;48.714;9.386;2023-06-10T00:39:24;7.50;;;5.80;;
44850;SDS011;30583;48.714;9.386;2023-06-10T00:41:49;7.57;;;5.35;;
44850;SDS011;30583;48.714;9.386;2023-06-10T00:44:15;9.27;;;5.63;;
44850;SDS011;30583;48.714;9.386;2023-06-10T00:46:41;10.13;;;5.60;;
44850;SDS011;30583;48.714;9.386;2023-06-10T00:49:07;8.30;;;5.90;;
44850;SDS011;30583;48.714;9.386;2023-06-10T00:51:33;8.93;;;5.95;;
44850;SDS011;30583;48.714;9.386;2023-06-10T00:54:00;9.15;;;6.28;;
44850;SDS011;30583;48.714;9.386;2023-06-10T00:56:25;6.82;;;5.80;;
44850;SDS011;30583;48.714;9.386;2023-06-10T00:58:53;8.30;;;5.53;;
44850;SDS011;30583;48.714;9.386;2023-06-10T01:01:19;7.47;;;5.55;;
44850;SDS011;30583;48.714;9.386;2023-06-10T01:03:44;6.90;;;5.38;;
44850;SDS011;30583;48.714;9.386;2023-06-10T01:09:13;8.50;;;5.75;;
44850;SDS011;30583;48.714;9.386;2023-06-10T01:14:19;6.95;;;5.82;;
44850;SDS011;30583;48.714;9.386;2023-06-10T01:16:47;6.85;;;5.28;;
44850;SDS011;30583;48.714;9.386;2023-06-10T01:19:13;10.25;;;5.55;;
44850;SDS011;30583;48.714;9.386;2023-06-10T01:21:42;7.57;;;5.68;;
44850;SDS011;30583;48.714;9.386;2023-06-10T01:24:13;6.20;;;5.60;;
44850;SDS011;30583;48.714;9.386;2023-06-10T01:26:43;11.38;;;5.93;;
44850;SDS011;30583;48.714;9.386;2023-06-10T01:29:19;7.78;;;5.75;;
44850;SDS011;30583;48.714;9.386;2023-06-10T01:32:13;8.35;;;6.22;;
44850;SDS011;30583;48.714;9.386;2023-06-10T01:34:42;6.47;;;5.30;;
44850;SDS011;30583;48.714;9.386;2023-06-10T01:37:09;6.65;;;5.72;;
44850;SDS011;30583;48.714;9.386;2023-06-10T01:39:38;9.40;;;5.65;;
44850;SDS011;30583;48.714;9.386;2023-06-10T01:42:04;9.32;;;5.28;;
44850;SDS011;30583;48.714;9.386;2023-06-10T01:44:31;8.18;;;5.72;;
44850;SDS011;30583;48.714;9.386;2023-06-10T01:46:57;7.47;;;5.55;;
44850;SDS011;30583;48.714;9.386;2023-06-10T01:49:23;6.78;;;5.35;;
44850;SDS011;30583;48.714;9.386;2023-06-10T01:51:49;7.22;;;5.80;;
44850;SDS011;30583;48.714;9.386;2023-06-10T01:54:15;10.98;;;6.00;;
44850;SDS011;30583;48.714;9.386;2023-06-10T01:56:41;8.02;;;5.63;;
44850;SDS011;30583;48.714;9.386;2023-06-10T01:59:06;8.02;;;5.85;;
44850;SDS011;30583;48.714;9.386;2023-06-10T02:01:32;7.35;;;6.07;;
44850;SDS011;30583;48.714;9.386;2023-06-10T02:03:58;10.18;;;5.82;;
44850;SDS011;30583;48.714;9.386;2023-06-10T02:06:24;10.40;;;5.65;;
44850;SDS011;30583;48.714;9.386;2023-06-10T02:08:49;9.60;;;6.13;;
44850;SDS011;30583;48.714;9.386;2023-06-10T02:11:15;8.27;;;6.55;;
44850;SDS011;30583;48.714;9.386;2023-06-10T02:13:41;10.45;;;6.57;;
44850;SDS011;30583;48.714;9.386;2023-06-10T02:16:06;9.07;;;6.07;;
44850;SDS011;30583;48.714;9.386;2023-06-10T02:18:32;7.78;;;6.18;;
44850;SDS011;30583;48.714;9.386;2023-06-10T02:20:58;8.45;;;5.75;;
44850;SDS011;30583;48.714;9.386;2023-06-10T02:23:24;8.07;;;6.32;;
44850;SDS011;30583;48.714;9.386;2023-06-10T02:25:49;8.43;;;6.35;;
44850;SDS011;30583;48.714;9.386;2023-06-10T02:28:15;9.98;;;6.60;;
44850;SDS011;30583;48.714;9.386;2023-06-10T02:30:41;8.63;;;6.75;;
44850;SDS011;30583;48.714;9.386;2023-06-10T02:33:07;7.85;;;6.38;;
44850;SDS011;30583;48.714;9.386;2023-06-10T02:35:36;9.60;;;6.45;;
44850;SDS011;30583;48.714;9.386;2023-06-10T02:38:05;8.52;;;6.70;;
44850;SDS011;30583;48.714;9.386;2023-06-10T02:40:31;9.30;;;5.97;;
44850;SDS011;30583;48.714;9.386;2023-06-10T02:42:57;10.57;;;6.25;;
44850;SDS011;30583;48.714;9.386;2023-06-10T02:45:23;6.72;;;5.80;;
44850;SDS011;30583;48.714;9.386;2023-06-10T02:47:49;8.60;;;6.03;;
44850;SDS011;30583;48.714;9.386;2023-06-10T02:50:14;7.57;;;5.85;;
44850;SDS011;30583;48.714;9.386;2023-06-10T02:52:40;7.53;;;6.25;;
44850;SDS011;30583;48.714;9.386;2023-06-10T02:55:06;7.68;;;5.70;;
44850;SDS011;30583;48.714;9.386;2023-06-10T02:57:32;10.05;;;6.43;;
44850;SDS011;30583;48.714;9.386;2023-06-10T02:59:57;7.38;;;5.57;;
44850;SDS011;30583;48.714;9.386;2023-06-10T03:02:23;7.03;;;5.93;;
44850;SDS011;30583;48.714;9.386;2023-06-10T03:04:53;6.50;;;5.90;;
44850;SDS011;30583;48.714;9.386;2023-06-10T03:07:21;8.93;;;6.20;;
44850;SDS011;30583;48.714;9.386;2023-06-10T03:09:48;10.55;;;6.03;;
44850;SDS011;30583;48.714;9.386;2023-06-10T03:12:13;7.63;;;6.03;;
44850;SDS011;30583;48.714;9.386;2023-06-10T03:14:39;8.13;;;6.32;;
44850;SDS011;30583;48.714;9.386;2023-06-10T03:17:05;8.77;;;6.00;;
44850;SDS011;30583;48.714;9.386;2023-06-10T03:19:31;7.45;;;6.10;;
44850;SDS011;30583;48.714;9.386;2023-06-10T03:22:06;7.97;;;6.20;;
44850;SDS011;30583;48.714;9.386;2023-06-10T03:24:36;9.25;;;6.57;;
44850;SDS011;30583;48.714;9.386;2023-06-10T03:27:05;8.35;;;6.78;;
44850;SDS011;30583;48.714;9.386;2023-06-10T03:29:34;10.65;;;7.05;;
44850;SDS011;30583;48.714;9.386;2023-06-10T03:32:00;9.65;;;7.18;;
44850;SDS011;30583;48.714;9.386;2023-06-10T03:34:26;9.05;;;6.75;;
44850;SDS011;30583;48.714;9.386;2023-06-10T03:36:52;10.15;;;7.40;;
44850;SDS011;30583;48.714;9.386;2023-06-10T03:39:17;10.95;;;6.95;;
44850;SDS011;30583;48.714;9.386;2023-06-10T03:41:43;7.75;;;6.90;;
44850;SDS011;30583;48.714;9.386;2023-06-10T03:44:09;10.38;;;6.30;;
44850;SDS011;30583;48.714;9.386;2023-06-10T03:46:34;8.57;;;6.43;;
44850;SDS011;30583;48.714;9.386;2023-06-10T03:49:00;9.25;;;6.35;;
44850;SDS011;30583;48.714;9.386;2023-06-10T03:51:26;10.30;;;5.85;;
44850;SDS011;30583;48.714;9.386;2023-06-10T03:53:52;9.10;;;6.60;;
44850;SDS011;30583;48.714;9.386;2023-06-10T03:56:17;7.90;;;6.55;;
44850;SDS011;30583;48.714;9.386;2023-06-10T03:58:43;9.43;;;6.72;;
44850;SDS011;30583;48.714;9.386;2023-06-10T04:01:08;8.88;;;6.25;;
44850;SDS011;30583;48.714;9.386;2023-06-10T04:03:35;8.85;;;6.93;;
44850;SDS011;30583;48.714;9.386;2023-06-10T04:06:01;11.82;;;7.03;;
44850;SDS011;30583;48.714;9.386;2023-06-10T04:08:27;8.77;;;6.53;;
44850;SDS011;30583;48.714;9.386;2023-06-10T04:10:53;9.30;;;7.07;;
44850;SDS011;30583;48.714;9.386;2023-06-10T04:13:19;8.27;;;7.18;;
44850;SDS011;30583;48.714;9.386;2023-06-10T04:15:44;9.25;;;6.78;;
44850;SDS011;30583;48.714;9.386;2023-06-10T04:18:10;8.73;;;6.55;;
44850;SDS011;30583;48.714;9.386;2023-06-10T04:20:36;7.00;;;6.30;;
44850;SDS011;30583;48.714;9.386;2023-06-10T04:23:01;7.85;;;6.05;;
44850;SDS011;30583;48.714;9.386;2023-06-10T04:25:27;7.63;;;5.85;;
44850;SDS011;30583;48.714;9.386;2023-06-10T04:27:53;7.45;;;5.55;;
44850;SDS011;30583;48.714;9.386;2023-06-10T04:30:19;7.28;;;6.13;;
44850;SDS011;30583;48.714;9.386;2023-06-10T04:32:45;9.55;;;6.53;;
44850;SDS011;30583;48.714;9.386;2023-06-10T04:35:12;9.15;;;6.53;;
44850;SDS011;30583;48.714;9.386;2023-06-10T04:37:38;8.48;;;6.15;;
44850;SDS011;30583;48.714;9.386;2023-06-10T04:40:05;7.07;;;6.35;;
44850;SDS011;30583;48.714;9.386;2023-06-10T04:42:31;9.63;;;6.75;;
44850;SDS011;30583;48.714;9.386;2023-06-10T04:44:56;7.85;;;6.68;;
44850;SDS011;30583;48.714;9.386;2023-06-10T04:47:22;7.88;;;6.90;;
44850;SDS011;30583;48.714;9.386;2023-06-10T04:49:48;9.02;;;7.18;;
44850;SDS011;30583;48.714;9.386;2023-06-10T04:52:13;8.00;;;6.28;;
44850;SDS011;30583;48.714;9.386;2023-06-10T04:54:39;7.93;;;6.10;;
44850;SDS011;30583;48.714;9.386;2023-06-10T04:57:06;8.00;;;6.68;;
44850;SDS011;30583;48.714;9.386;2023-06-10T04:59:32;9.13;;;6.38;;
44850;SDS011;30583;48.714;9.386;2023-06-10T05:02:02;9.30;;;6.97;;
44850;SDS011;30583;48.714;9.386;2023-06-10T05:04:28;7.85;;;6.65;;
44850;SDS011;30583;48.714;9.386;2023-06-10T05:06:54;7.70;;;6.88;;
44850;SDS011;30583;48.714;9.386;2023-06-10T05:09:20;7.75;;;6.95;;
44850;SDS011;30583;48.714;9.386;2023-06-10T05:11:46;8.00;;;6.43;;
44850;SDS011;30583;48.714;9.386;2023-06-10T05:14:11;9.55;;;7.50;;
44850;SDS011;30583;48.714;9.386;2023-06-10T05:16:37;8.65;;;6.85;;
44850;SDS011;30583;48.714;9.386;2023-06-10T05:19:03;10.18;;;7.10;;
44850;SDS011;30583;48.714;9.386;2023-06-10T05:21:29;11.30;;;7.43;;
44850;SDS011;30583;48.714;9.386;2023-06-10T05:23:54;9.27;;;7.65;;
44850;SDS011;30583;48.714;9.386;2023-06-10T05:26:20;7.68;;;6.88;;
44850;SDS011;30583;48.714;9.386;2023-06-10T05:28:46;9.75;;;6.88;;
44850;SDS011;30583;48.714;9.386;2023-06-10T05:31:12;8.90;;;7.38;;
44850;SDS011;30583;48.714;9.386;2023-06-10T05:33:38;8.13;;;6.78;;
44850;SDS011;30583;48.714;9.386;2023-06-10T05:36:04;8.82;;;7.60;;
44850;SDS011;30583;48.714;9.386;2023-06-10T05:38:30;8.85;;;7.03;;
44850;SDS011;30583;48.714;9.386;2023-06-10T05:40:56;8.73;;;7.15;;
44850;SDS011;30583;48.714;9.386;2023-06-10T05:43:22;8.77;;;7.60;;
44850;SDS011;30583;48.714;9.386;2023-06-10T05:45:47;7.90;;;7.10;;
44850;SDS011;30583;48.714;9.386;2023-06-10T05:48:13;7.88;;;7.07;;
44850;SDS011;30583;48.714;9.386;2023-06-10T05:50:39;7.97;;;6.88;;
44850;SDS011;30583;48.714;9.386;2023-06-10T05:53:07;9.10;;;7.20;;
44850;SDS011;30583;48.714;9.386;2023-06-10T05:55:39;8.82;;;6.97;;
44850;SDS011;30583;48.714;9.386;2023-06-10T05:58:06;8.45;;;6.55;;
44850;SDS011;30583;48.714;9.386;2023-06-10T06:00:31;11.23;;;7.38;;
44850;SDS011;30583;48.714;9.386;2023-06-10T06:02:57;11.57;;;7.47;;
44850;SDS011;30583;48.714;9.386;2023-06-10T06:05:23;9.93;;;6.30;;
44850;SDS011;30583;48.714;9.386;2023-06-10T06:07:49;9.90;;;6.75;;
44850;SDS011;30583;48.714;9.386;2023-06-10T06:10:16;8.40;;;7.30;;
44850;SDS011;30583;48.714;9.386;2023-06-10T06:12:42;8.55;;;6.80;;
44850;SDS011;30583;48.714;9.386;2023-06-10T06:15:08;9.63;;;6.65;;
44850;SDS011;30583;48.714;9.386;2023-06-10T06:17:34;10.95;;;6.65;;
44850;SDS011;30583;48.714;9.386;2023-06-10T06:20:00;8.43;;;6.20;;
44850;SDS011;30583;48.714;9.386;2023-06-10T06:22:27;9.10;;;6.25;;
44850;SDS011;30583;48.714;9.386;2023-06-10T06:24:52;9.05;;;6.53;;
44850;SDS011;30583;48.714;9.386;2023-06-10T06:27:18;6.85;;;5.43;;
44850;SDS011;30583;48.714;9.386;2023-06-10T06:29:43;7.75;;;6.35;;
44850;SDS011;30583;48.714;9.386;2023-06-10T06:32:09;8.77;;;6.50;;
44850;SDS011;30583;48.714;9.386;2023-06-10T06:34:35;8.70;;;6.25;;
44850;SDS011;30583;48.714;9.386;2023-06-10T06:37:00;8.48;;;5.93;;
44850;SDS011;30583;48.714;9.386;2023-06-10T06:39:26;7.75;;;6.25;;
44850;SDS011;30583;48.714;9.386;2023-06-10T06:41:51;10.18;;;6.05;;
44850;SDS011;30583;48.714;9.386;2023-06-10T06:44:17;8.43;;;6.10;;
44850;SDS011;30583;48.714;9.386;2023-06-10T06:46:42;9.40;;;5.85;;
44850;SDS011;30583;48.714;9.386;2023-06-10T06:49:08;6.05;;;5.07;;
44850;SDS011;30583;48.714;9.386;2023-06-10T06:51:33;6.53;;;5.50;;
44850;SDS011;30583;48.714;9.386;2023-06-10T06:53:59;8.57;;;5.70;;
44850;SDS011;30583;48.714;9.386;2023-06-10T06:56:24;9.50;;;6.20;;
44850;SDS011;30583;48.714;9.386;2023-06-10T06:58:52;8.40;;;5.55;;
44850;SDS011;30583;48.714;9.386;2023-06-10T07:01:17;8.63;;;5.55;;
44850;SDS011;30583;48.714;9.386;2023-06-10T07:03:43;8.13;;;5.43;;
44850;SDS011;30583;48.714;9.386;2023-06-10T07:06:08;7.85;;;5.13;;
44850;SDS011;30583;48.714;9.386;2023-06-10T07:08:34;8.95;;;5.20;;
44850;SDS011;30583;48.714;9.386;2023-06-10T07:10:59;8.05;;;5.35;;
44850;SDS011;30583;48.714;9.386;2023-06-10T07:13:25;6.55;;;4.95;;
44850;SDS011;30583;48.714;9.386;2023-06-10T07:15:51;6.28;;;4.75;;
44850;SDS011;30583;48.714;9.386;2023-06-10T07:18:16;7.35;;;4.13;;
44850;SDS011;30583;48.714;9.386;2023-06-10T07:20:42;5.93;;;4.85;;
44850;SDS011;30583;48.714;9.386;2023-06-10T07:23:08;5.95;;;4.78;;
44850;SDS011;30583;48.714;9.386;2023-06-10T07:25:33;6.05;;;4.95;;
44850;SDS011;30583;48.714;9.386;2023-06-10T07:27:59;5.72;;;5.00;;
44850;SDS011;30583;48.714;9.386;2023-06-10T07:30:24;7.40;;;5.20;;
44850;SDS011;30583;48.714;9.386;2023-06-10T07:32:50;7.28;;;4.75;;
44850;SDS011;30583;48.714;9.386;2023-06-10T07:35:16;6.65;;;4.70;;
44850;SDS011;30583;48.714;9.386;2023-06-10T07:37:42;8.15;;;4.68;;
44850;SDS011;30583;48.714;9.386;2023-06-10T07:40:08;8.50;;;6.13;;
44850;SDS011;30583;48.714;9.386;2023-06-10T07:42:35;7.45;;;4.55;;
44850;SDS011;30583;48.714;9.386;2023-06-10T07:45:02;6.47;;;4.80;;
44850;SDS011;30583;48.714;9.386;2023-06-10T07:47:28;8.23;;;5.35;;
44850;SDS011;30583;48.714;9.386;2023-06-10T07:49:54;7.38;;;4.93;;
44850;SDS011;30583;48.714;9.386;2023-06-10T07:52:19;5.68;;;4.97;;
44850;SDS011;30583;48.714;9.386;2023-06-10T07:54:45;5.82;;;4.93;;
44850;SDS011;30583;48.714;9.386;2023-06-10T07:57:11;6.10;;;5.05;;
44850;SDS011;30583;48.714;9.386;2023-06-10T07:59:36;7.85;;;5.22;;
44850;SDS011;30583;48.714;9.386;2023-06-10T08:02:02;7.55;;;5.82;;
44850;SDS011;30583;48.714;9.386;2023-06-10T08:04:28;7.95;;;5.30;;
44850;SDS011;30583;48.714;9.386;2023-06-10T08:06:55;8.25;;;4.60;;
44850;SDS011;30583;48.714;9.386;2023-06-10T08:09:21;6.63;;;5.45;;
44850;SDS011;30583;48.714;9.386;2023-06-10T08:11:48;6.57;;;5.03;;
44850;SDS011;30583;48.714;9.386;2023-06-10T08:14:14;5.10;;;4.18;;
44850;SDS011;30583;48.714;9.386;2023-06-10T08:16:39;6.68;;;5.05;;
44850;SDS011;30583;48.714;9.386;2023-06-10T08:19:05;8.05;;;4.88;;
44850;SDS011;30583;48.714;9.386;2023-06-10T08:21:31;5.40;;;4.78;;
44850;SDS011;30583;48.714;9.386;2023-06-10T08:23:56;9.15;;;5.43;;
44850;SDS011;30583;48.714;9.386;2023-06-10T08:26:22;8.27;;;5.55;;
44850;SDS011;30583;48.714;9.386;2023-06-10T08:28:48;9.20;;;5.68;;
44850;SDS011;30583;48.714;9.386;2023-06-10T08:31:14;15.32;;;6.03;;
44850;SDS011;30583;48.714;9.386;2023-06-10T08:33:40;7.47;;;4.75;;
44850;SDS011;30583;48.714;9.386;2023-06-10T08:36:06;6.60;;;4.57;;
44850;SDS011;30583;48.714;9.386;2023-06-10T08:38:32;6.30;;;4.53;;
44850;SDS011;30583;48.714;9.386;2023-06-10T08:40:59;7.38;;;5.75;;
44850;SDS011;30583;48.714;9.386;2023-06-10T08:45:59;7.43;;;4.70;;
44850;SDS011;30583;48.714;9.386;2023-06-10T08:48:26;7.93;;;5.18;;
44850;SDS011;30583;48.714;9.386;2023-06-10T08:50:55;5.78;;;4.10;;
44850;SDS011;30583;48.714;9.386;2023-06-10T08:53:22;5.75;;;4.60;;
44850;SDS011;30583;48.714;9.386;2023-06-10T08:55:51;6.88;;;4.40;;
44850;SDS011;30583;48.714;9.386;2023-06-10T08:58:18;6.25;;;4.30;;
44850;SDS011;30583;48.714;9.386;2023-06-10T09:00:44;6.72;;;4.55;;
44850;SDS011;30583;48.714;9.386;2023-06-10T09:03:11;4.47;;;4.03;;
44850;SDS011;30583;48.714;9.386;2023-06-10T09:05:37;5.45;;;4.03;;
44850;SDS011;30583;48.714;9.386;2023-06-10T09:08:04;5.30;;;4.53;;
44850;SDS011;30583;48.714;9.386;2023-06-10T09:10:32;6.70;;;4.13;;
44850;SDS011;30583;48.714;9.386;2023-06-10T09:12:58;5.72;;;4.25;;
44850;SDS011;30583;48.714;9.386;2023-06-10T09:15:23;6.22;;;4.30;;
44850;SDS011;30583;48.714;9.386;2023-06-10T09:17:49;7.95;;;5.45;;
44850;SDS011;30583;48.714;9.386;2023-06-10T09:20:16;6.53;;;5.07;;
44850;SDS011;30583;48.714;9.386;2023-06-10T09:22:41;6.68;;;4.90;;
44850;SDS011;30583;48.714;9.386;2023-06-10T09:25:08;6.97;;;4.82;;
44850;SDS011;30583;48.714;9.386;2023-06-10T09:27:51;6.60;;;4.60;;
44850;SDS011;30583;48.714;9.386;2023-06-10T09:30:31;9.02;;;4.50;;
44850;SDS011;30583;48.714;9.386;2023-06-10T09:32:59;6.90;;;4.38;;
44850;SDS011;30583;48.714;9.386;2023-06-10T09:35:35;4.70;;;3.90;;
44850;SDS011;30583;48.714;9.386;2023-06-10T09:38:00;5.47;;;4.20;;
44850;SDS011;30583;48.714;9.386;2023-06-10T09:40:27;7.20;;;4.18;;
44850;SDS011;30583;48.714;9.386;2023-06-10T09:42:54;5.47;;;4.10;;
44850;SDS011;30583;48.714;9.386;2023-06-10T09:45:21;7.80;;;4.30;;
44850;SDS011;30583;48.714;9.386;2023-06-10T09:47:51;5.68;;;4.40;;
44850;SDS011;30583;48.714;9.386;2023-06-10T09:50:18;5.93;;;3.90;;
44850;SDS011;30583;48.714;9.386;2023-06-10T09:52:44;5.00;;;4.10;;
44850;SDS011;30583;48.714;9.386;2023-06-10T09:55:11;6.35;;;4.28;;
44850;SDS011;30583;48.714;9.386;2023-06-10T09:57:37;7.70;;;4.47;;
44850;SDS011;30583;48.714;9.386;2023-06-10T10:00:07;6.22;;;3.90;;
44850;SDS011;30583;48.714;9.386;2023-06-10T10:02:50;7.03;;;3.90;;
44850;SDS011;30583;48.714;9.386;2023-06-10T10:05:18;6.50;;;4.13;;
44850;SDS011;30583;48.714;9.386;2023-06-10T10:07:46;4.95;;;4.10;;
44850;SDS011;30583;48.714;9.386;2023-06-10T10:10:13;4.63;;;3.88;;
44850;SDS011;30583;48.714;9.386;2023-06-10T10:12:40;7.15;;;3.80;;
44850;SDS011;30583;48.714;9.386;2023-06-10T10:15:07;5.47;;;4.50;;
44850;SDS011;30583;48.714;9.386;2023-06-10T10:17:37;5.47;;;4.05;;
44850;SDS011;30583;48.714;9.386;2023-06-10T10:20:24;4.63;;;3.53;;
44850;SDS011;30583;48.714;9.386;2023-06-10T10:22:55;6.85;;;3.88;;
44850;SDS011;30583;48.714;9.386;2023-06-10T10:25:29;5.22;;;4.25;;
44850;SDS011;30583;48.714;9.386;2023-06-10T10:33:12;5.00;;;3.53;;
44850;SDS011;30583;48.714;9.386;2023-06-10T10:35:43;4.05;;;3.40;;
44850;SDS011;30583;48.714;9.386;2023-06-10T10:38:10;4.18;;;3.20;;
44850;SDS011;30583;48.714;9.386;2023-06-10T10:40:36;4.70;;;3.88;;
44850;SDS011;30583;48.714;9.386;2023-06-10T10:43:03;4.22;;;3.55;;
44850;SDS011;30583;48.714;9.386;2023-06-10T10:45:30;5.40;;;3.70;;
44850;SDS011;30583;48.714;9.386;2023-06-10T10:47:58;4.10;;;3.28;;
44850;SDS011;30583;48.714;9.386;2023-06-10T10:50:30;5.03;;;3.65;;
44850;SDS011;30583;48.714;9.386;2023-06-10T10:52:58;4.95;;;3.47;;
44850;SDS011;30583;48.714;9.386;2023-06-10T10:55:25;7.50;;;3.28;;
44850;SDS011;30583;48.714;9.386;2023-06-10T10:58:07;5.50;;;3.42;;
44850;SDS011;30583;48.714;9.386;2023-06-10T11:00:35;5.13;;;3.33;;
44850;SDS011;30583;48.714;9.386;2023-06-10T11:05:40;4.45;;;3.40;;
44850;SDS011;30583;48.714;9.386;2023-06-10T11:08:09;10.70;;;3.72;;
44850;SDS011;30583;48.714;9.386;2023-06-10T11:10:36;4.65;;;3.47;;
44850;SDS011;30583;48.714;9.386;2023-06-10T11:15:33;4.80;;;3.33;;
44850;SDS011;30583;48.714;9.386;2023-06-10T11:18:06;5.93;;;3.55;;
44850;SDS011;30583;48.714;9.386;2023-06-10T11:23:25;4.32;;;3.17;;
44850;SDS011;30583;48.714;9.386;2023-06-10T11:31:20;7.00;;;3.40;;
44850;SDS011;30583;48.714;9.386;2023-06-10T11:33:47;3.40;;;2.90;;
44850;SDS011;30583;48.714;9.386;2023-06-10T11:36:13;5.18;;;3.80;;
44850;SDS011;30583;48.714;9.386;2023-06-10T11:38:42;3.30;;;2.80;;
44850;SDS011;30583;48.714;9.386;2023-06-10T11:41:08;4.35;;;3.10;;
44850;SDS011;30583;48.714;9.386;2023-06-10T11:43:36;4.43;;;3.22;;
44850;SDS011;30583;48.714;9.386;2023-06-10T11:46:12;4.38;;;3.28;;
44850;SDS011;30583;48.714;9.386;2023-06-10T11:48:38;4.47;;;3.30;;
44850;SDS011;30583;48.714;9.386;2023-06-10T11:51:06;7.13;;;3.10;;
44850;SDS011;30583;48.714;9.386;2023-06-10T11:53:33;5.07;;;3.20;;
44850;SDS011;30583;48.714;9.386;2023-06-10T11:55:58;5.75;;;3.35;;
44850;SDS011;30583;48.714;9.386;2023-06-10T11:58:24;3.90;;;3.10;;
44850;SDS011;30583;48.714;9.386;2023-06-10T12:00:51;4.28;;;3.35;;
44850;SDS011;30583;48.714;9.386;2023-06-10T12:03:26;4.60;;;3.60;;
44850;SDS011;30583;48.714;9.386;2023-06-10T12:05:55;4.93;;;3.30;;
44850;SDS011;30583;48.714;9.386;2023-06-10T12:08:26;3.83;;;3.13;;
44850;SDS011;30583;48.714;9.386;2023-06-10T12:10:52;6.15;;;3.28;;
44850;SDS011;30583;48.714;9.386;2023-06-10T12:13:18;5.93;;;3.13;;
44850;SDS011;30583;48.714;9.386;2023-06-10T12:15:44;4.40;;;3.35;;
44850;SDS011;30583;48.714;9.386;2023-06-10T12:18:16;4.53;;;3.00;;
44850;SDS011;30583;48.714;9.386;2023-06-10T12:23:09;4.50;;;3.10;;
44850;SDS011;30583;48.714;9.386;2023-06-10T12:25:36;4.88;;;3.10;;
44850;SDS011;30583;48.714;9.386;2023-06-10T12:28:02;5.65;;;3.15;;
44850;SDS011;30583;48.714;9.386;2023-06-10T12:30:27;6.35;;;3.33;;
44850;SDS011;30583;48.714;9.386;2023-06-10T12:32:54;5.20;;;3.25;;
44850;SDS011;30583;48.714;9.386;2023-06-10T12:35:21;4.80;;;3.45;;
44850;SDS011;30583;48.714;9.386;2023-06-10T12:37:56;6.13;;;3.65;;
44850;SDS011;30583;48.714;9.386;2023-06-10T12:40:32;5.35;;;3.38;;
44850;SDS011;30583;48.714;9.386;2023-06-10T12:43:00;3.72;;;2.90;;
44850;SDS011;30583;48.714;9.386;2023-06-10T12:45:29;6.20;;;3.10;;
44850;SDS011;30583;48.714;9.386;2023-06-10T12:48:05;5.00;;;2.92;;
44850;SDS011;30583;48.714;9.386;2023-06-10T12:50:32;3.80;;;2.78;;
44850;SDS011;30583;48.714;9.386;2023-06-10T12:52:59;6.13;;;3.10;;
44850;SDS011;30583;48.714;9.386;2023-06-10T12:55:25;4.68;;;3.13;;
44850;SDS011;30583;48.714;9.386;2023-06-10T12:57:50;3.80;;;2.72;;
44850;SDS011;30583;48.714;9.386;2023-06-10T13:00:17;3.70;;;2.80;;
44850;SDS011;30583;48.714;9.386;2023-06-10T13:02:43;9.18;;;5.30;;
44850;SDS011;30583;48.714;9.386;2023-06-10T13:05:08;14.63;;;9.77;;
44850;SDS011;30583;48.714;9.386;2023-06-10T13:07:34;23.85;;;19.50;;
44850;SDS011;30583;48.714;9.386;2023-06-10T13:10:00;7.32;;;4.30;;
44850;SDS011;30583;48.714;9.386;2023-06-10T13:12:26;5.18;;;3.33;;
44850;SDS011;30583;48.714;9.386;2023-06-10T13:14:54;4.50;;;3.30;;
44850;SDS011;30583;48.714;9.386;2023-06-10T13:17:20;4.18;;;3.00;;
44850;SDS011;30583;48.714;9.386;2023-06-10T13:19:45;5.93;;;3.22;;
44850;SDS011;30583;48.714;9.386;2023-06-10T13:22:11;5.03;;;3.20;;
44850;SDS011;30583;48.714;9.386;2023-06-10T13:24:40;4.10;;;3.30;;
44850;SDS011;30583;48.714;9.386;2023-06-10T13:27:06;4.70;;;3.38;;
44850;SDS011;30583;48.714;9.386;2023-06-10T13:29:32;4.05;;;2.95;;
44850;SDS011;30583;48.714;9.386;2023-06-10T13:31:57;5.28;;;2.85;;
44850;SDS011;30583;48.714;9.386;2023-06-10T13:34:23;3.70;;;2.90;;
44850;SDS011;30583;48.714;9.386;2023-06-10T13:36:49;4.97;;;2.80;;
44850;SDS011;30583;48.714;9.386;2023-06-10T13:39:14;4.68;;;3.10;;
44850;SDS011;30583;48.714;9.386;2023-06-10T13:41:40;13.05;;;3.47;;
44850;SDS011;30583;48.714;9.386;2023-06-10T13:44:06;25.17;;;5.28;;
44850;SDS011;30583;48.714;9.386;2023-06-10T13:46:32;33.80;;;7.40;;
44850;SDS011;30583;48.714;9.386;2023-06-10T13:48:58;6.07;;;3.20;;
44850;SDS011;30583;48.714;9.386;2023-06-10T13:51:23;5.60;;;3.30;;
44850;SDS011;30583;48.714;9.386;2023-06-10T13:53:49;6.03;;;4.65;;
44850;SDS011;30583;48.714;9.386;2023-06-10T13:56:16;15.10;;;4.95;;
44850;SDS011;30583;48.714;9.386;2023-06-10T13:58:42;4.90;;;3.42;;
44850;SDS011;30583;48.714;9.386;2023-06-10T14:01:08;4.97;;;3.20;;
44850;SDS011;30583;48.714;9.386;2023-06-10T14:03:34;6.88;;;3.50;;
44850;SDS011;30583;48.714;9.386;2023-06-10T14:05:59;4.47;;;3.20;;
44850;SDS011;30583;48.714;9.386;2023-06-10T14:08:25;4.82;;;3.53;;
44850;SDS011;30583;48.714;9.386;2023-06-10T14:10:51;6.45;;;3.70;;
44850;SDS011;30583;48.714;9.386;2023-06-10T14:13:17;82.65;;;7.78;;
44850;SDS011;30583;48.714;9.386;2023-06-10T14:15:42;4.80;;;3.15;;
44850;SDS011;30583;48.714;9.386;2023-06-10T14:18:08;4.90;;;3.40;;
44850;SDS011;30583;48.714;9.386;2023-06-10T14:20:34;4.35;;;3.05;;
44850;SDS011;30583;48.714;9.386;2023-06-10T14:23:00;8.20;;;3.15;;
44850;SDS011;30583;48.714;9.386;2023-06-10T14:25:25;4.75;;;3.42;;
44850;SDS011;30583;48.714;9.386;2023-06-10T14:27:51;4.43;;;3.78;;
44850;SDS011;30583;48.714;9.386;2023-06-10T14:30:17;4.40;;;3.55;;
44850;SDS011;30583;48.714;9.386;2023-06-10T14:32:42;4.97;;;3.17;;
44850;SDS011;30583;48.714;9.386;2023-06-10T14:35:08;5.45;;;3.25;;
44850;SDS011;30583;48.714;9.386;2023-06-10T14:37:34;3.88;;;2.72;;
44850;SDS011;30583;48.714;9.386;2023-06-10T14:40:01;4.25;;;3.10;;
44850;SDS011;30583;48.714;9.386;2023-06-10T14:42:27;5.57;;;3.10;;
44850;SDS011;30583;48.714;9.386;2023-06-10T14:44:52;4.43;;;3.45;;
44850;SDS011;30583;48.714;9.386;2023-06-10T14:47:18;5.55;;;3.45;;
44850;SDS011;30583;48.714;9.386;2023-06-10T14:49:43;4.30;;;2.92;;
44850;SDS011;30583;48.714;9.386;2023-06-10T14:52:09;4.97;;;3.20;;
44850;SDS011;30583;48.714;9.386;2023-06-10T14:54:35;4.13;;;3.00;;
44850;SDS011;30583;48.714;9.386;2023-06-10T14:57:01;5.50;;;3.00;;
44850;SDS011;30583;48.714;9.386;2023-06-10T14:59:26;4.35;;;3.20;;
44850;SDS011;30583;48.714;9.386;2023-06-10T15:01:52;5.95;;;3.20;;
44850;SDS011;30583;48.714;9.386;2023-06-10T15:04:18;4.18;;;3.17;;
44850;SDS011;30583;48.714;9.386;2023-06-10T15:06:43;4.00;;;3.22;;
44850;SDS011;30583;48.714;9.386;2023-06-10T15:09:09;4.75;;;3.72;;
44850;SDS011;30583;48.714;9.386;2023-06-10T15:11:35;6.93;;;5.32;;